createdAt,value
2022-10-21T00:00:18.828Z,3.75
2022-10-21T00:02:50.178Z,4.75
2022-10-21T00:05:21.157Z,4.75
2022-10-21T00:07:51.703Z,3.80
2022-10-21T00:10:23.680Z,4.10
2022-10-21T00:12:53.157Z,4.50
2022-10-21T00:15:23.787Z,4.58
2022-10-21T00:17:55.294Z,3.20
2022-10-21T00:20:24.641Z,4.45
2022-10-21T00:22:56.349Z,4.85
2022-10-21T00:25:25.877Z,4.95
2022-10-21T00:27:57.585Z,6.25
2022-10-21T00:30:27.753Z,5.10
2022-10-21T00:33:02.150Z,4.67
2022-10-21T00:35:34.565Z,3.92
2022-10-21T00:38:03.348Z,6.95
2022-10-21T00:40:33.505Z,5.28
2022-10-21T00:43:03.627Z,6.75
2022-10-21T00:45:35.734Z,7.85
2022-10-21T00:48:13.310Z,7.40
2022-10-21T00:50:54.432Z,9.68
2022-10-21T00:53:24.010Z,10.40
2022-10-21T00:55:57.727Z,13.68
2022-10-21T00:58:30.581Z,21.62
2022-10-21T01:01:03.623Z,13.50
2022-10-21T01:03:36.264Z,13.38
2022-10-21T01:06:09.341Z,13.38
2022-10-21T01:08:39.260Z,12.70
2022-10-21T01:11:13.236Z,10.23
2022-10-21T01:14:30.946Z,5.92
2022-10-21T01:17:40.164Z,6.47
2022-10-21T01:20:24.968Z,4.62
2022-10-21T01:23:33.571Z,4.47
2022-10-21T01:26:58.925Z,4.33
2022-10-21T01:29:54.106Z,6.50
2022-10-21T01:32:47.762Z,9.38
2022-10-21T01:35:37.386Z,10.23
2022-10-21T01:38:25.041Z,10.68
2022-10-21T01:41:18.187Z,10.75
2022-10-21T01:43:57.285Z,10.78
2022-10-21T01:46:34.345Z,11.50
2022-10-21T01:49:09.707Z,7.92
2022-10-21T01:51:39.309Z,9.23
2022-10-21T01:54:17.252Z,8.45
2022-10-21T01:56:47.136Z,7.10
2022-10-21T01:59:16.628Z,7.60
2022-10-21T02:01:47.173Z,6.92
2022-10-21T02:04:18.767Z,7.28
2022-10-21T02:06:50.570Z,7.10
2022-10-21T02:09:21.020Z,7.17
2022-10-21T02:11:52.511Z,5.65
2022-10-21T02:14:39.318Z,6.92
2022-10-21T02:17:13.069Z,4.58
2022-10-21T02:19:43.507Z,5.47
2022-10-21T02:22:17.449Z,5.17
2022-10-21T02:25:06.029Z,4.92
2022-10-21T02:27:37.606Z,4.53
2022-10-21T02:30:08.742Z,3.55
2022-10-21T02:32:50.049Z,3.92
2022-10-21T02:35:34.158Z,3.30
2022-10-21T02:38:29.457Z,3.60
2022-10-21T02:41:06.547Z,4.87
2022-10-21T02:43:53.377Z,3.27
2022-10-21T02:46:22.761Z,7.05
2022-10-21T02:48:53.083Z,5.58
2022-10-21T02:51:22.050Z,6.37
2022-10-21T02:53:51.179Z,5.37
2022-10-21T02:56:21.131Z,7.15
2022-10-21T02:58:51.282Z,3.62
2022-10-21T03:01:20.868Z,4.65
2022-10-21T03:03:50.747Z,4.67
2022-10-21T03:06:20.174Z,3.02
2022-10-21T03:08:49.849Z,7.37
2022-10-21T03:11:20.083Z,5.40
2022-10-21T03:13:50.059Z,3.85
2022-10-21T03:16:20.068Z,4.12
2022-10-21T03:18:49.927Z,5.03
2022-10-21T03:21:21.125Z,5.45
2022-10-21T03:23:50.574Z,3.52
2022-10-21T03:26:20.061Z,5.62
2022-10-21T03:28:50.584Z,4.65
2022-10-21T03:31:20.371Z,5.50
2022-10-21T03:33:51.005Z,8.50
2022-10-21T03:36:21.134Z,6.90
2022-10-21T03:38:50.216Z,6.40
2022-10-21T03:41:19.618Z,5.55
2022-10-21T03:43:49.151Z,10.50
2022-10-21T03:46:18.870Z,11.15
2022-10-21T03:48:48.277Z,11.63
2022-10-21T03:51:18.831Z,11.08
2022-10-21T03:53:48.433Z,8.48
2022-10-21T03:56:18.222Z,12.00
2022-10-21T03:58:48.097Z,11.28
2022-10-21T04:01:20.006Z,10.82
2022-10-21T04:03:49.659Z,10.93
2022-10-21T04:06:20.183Z,12.15
2022-10-21T04:08:51.135Z,11.57
2022-10-21T04:11:21.195Z,15.10
2022-10-21T04:13:51.019Z,15.20
2022-10-21T04:16:21.930Z,13.58
2022-10-21T04:18:50.812Z,15.45
2022-10-21T04:21:20.798Z,11.90
2022-10-21T04:23:51.204Z,11.93
2022-10-21T04:26:20.993Z,12.05
2022-10-21T04:28:51.217Z,18.52
2022-10-21T04:31:20.811Z,14.87
2022-10-21T04:33:51.889Z,15.90
2022-10-21T04:36:22.850Z,14.93
2022-10-21T04:38:52.424Z,11.83
2022-10-21T04:41:22.033Z,17.77
2022-10-21T04:43:51.998Z,15.55
2022-10-21T04:46:21.346Z,16.57
2022-10-21T04:48:52.762Z,12.82
2022-10-21T04:51:22.607Z,13.68
2022-10-21T04:53:52.176Z,22.17
2022-10-21T04:56:21.882Z,20.05
2022-10-21T04:58:52.102Z,14.45
2022-10-21T05:01:21.590Z,19.67
2022-10-21T05:03:52.542Z,13.90
2022-10-21T05:06:22.575Z,16.67
2022-10-21T05:08:53.421Z,14.55
2022-10-21T05:11:23.819Z,11.45
2022-10-21T05:13:54.863Z,13.40
2022-10-21T05:16:26.354Z,12.25
2022-10-21T05:18:57.785Z,12.47
2022-10-21T05:21:28.526Z,14.10
2022-10-21T05:23:59.540Z,18.00
2022-10-21T05:26:30.844Z,17.35
2022-10-21T05:29:00.677Z,10.30
2022-10-21T05:31:31.160Z,16.10
2022-10-21T05:34:02.306Z,15.25
2022-10-21T05:36:32.008Z,11.10
2022-10-21T05:39:02.125Z,15.65
2022-10-21T05:41:32.789Z,18.70
2022-10-21T05:44:03.392Z,12.75
2022-10-21T05:46:33.477Z,13.85
2022-10-21T05:49:04.338Z,13.55
2022-10-21T05:51:35.375Z,14.45
2022-10-21T05:54:05.412Z,20.45
2022-10-21T05:56:38.295Z,14.40
2022-10-21T05:59:10.223Z,14.40
2022-10-21T06:01:41.786Z,17.82
2022-10-21T06:04:14.117Z,16.20
2022-10-21T06:06:44.278Z,13.75
2022-10-21T06:09:14.253Z,18.27
2022-10-21T06:11:45.798Z,19.30
2022-10-21T06:14:16.906Z,14.45
2022-10-21T06:16:48.827Z,14.78
2022-10-21T06:19:20.287Z,15.45
2022-10-21T06:21:51.077Z,15.15
2022-10-21T06:24:22.083Z,17.62
2022-10-21T06:26:52.834Z,16.30
2022-10-21T06:29:23.440Z,17.35
2022-10-21T06:31:52.869Z,12.18
2022-10-21T06:34:23.020Z,18.82
2022-10-21T06:36:53.178Z,14.93
2022-10-21T06:39:24.064Z,16.73
2022-10-21T06:41:54.375Z,14.58
2022-10-21T06:44:31.958Z,18.98
2022-10-21T06:47:02.237Z,18.48
2022-10-21T06:49:32.786Z,20.10
2022-10-21T06:52:02.396Z,12.25
2022-10-21T06:54:32.862Z,16.42
2022-10-21T06:57:02.828Z,18.32
2022-10-21T06:59:33.526Z,18.52
2022-10-21T07:02:03.691Z,15.13
2022-10-21T07:04:33.873Z,14.93
2022-10-21T07:07:04.481Z,19.67
2022-10-21T07:09:36.054Z,15.23
2022-10-21T07:12:05.935Z,15.28
2022-10-21T07:14:35.327Z,16.25
2022-10-21T07:17:06.623Z,15.60
2022-10-21T07:19:37.058Z,14.93
2022-10-21T07:22:06.309Z,17.77
2022-10-21T07:24:36.671Z,20.77
2022-10-21T07:27:07.981Z,15.58
2022-10-21T07:29:39.570Z,18.85
2022-10-21T07:32:09.660Z,12.88
2022-10-21T07:34:39.984Z,19.90
2022-10-21T07:37:10.463Z,18.02
2022-10-21T07:39:41.734Z,25.12
2022-10-21T07:42:12.782Z,22.27
2022-10-21T07:44:42.731Z,20.37
2022-10-21T07:47:12.490Z,17.40
2022-10-21T07:49:41.521Z,25.27
2022-10-21T07:52:11.827Z,15.32
2022-10-21T07:54:41.832Z,15.90
2022-10-21T07:57:12.652Z,15.28
2022-10-21T07:59:42.330Z,16.90
2022-10-21T08:02:14.577Z,15.35
2022-10-21T08:04:45.256Z,15.20
2022-10-21T08:07:15.316Z,17.17
2022-10-21T08:09:45.987Z,14.85
2022-10-21T08:12:16.492Z,14.13
2022-10-21T08:14:47.548Z,16.05
2022-10-21T08:17:17.405Z,20.92
2022-10-21T08:19:48.098Z,19.75
2022-10-21T08:22:17.671Z,16.45
2022-10-21T08:24:47.946Z,14.03
2022-10-21T08:27:17.535Z,14.33
2022-10-21T08:29:49.124Z,13.28
2022-10-21T08:32:18.641Z,13.48
2022-10-21T08:34:49.451Z,13.90
2022-10-21T08:37:23.465Z,12.65
2022-10-21T08:39:52.412Z,10.25
2022-10-21T08:42:23.543Z,7.25
2022-10-21T08:45:03.060Z,9.38
2022-10-21T08:47:45.035Z,8.83
2022-10-21T08:50:17.480Z,8.08
2022-10-21T08:53:01.720Z,10.70
2022-10-21T08:55:40.136Z,7.45
2022-10-21T08:58:19.149Z,12.82
2022-10-21T09:01:02.669Z,10.88
2022-10-21T09:04:19.772Z,11.45
2022-10-21T09:07:11.191Z,10.32
2022-10-21T09:09:55.571Z,14.75
2022-10-21T09:13:02.385Z,9.05
2022-10-21T09:16:01.901Z,13.08
2022-10-21T09:19:09.891Z,9.73
2022-10-21T09:22:33.234Z,9.83
2022-10-21T09:25:01.026Z,7.97
2022-10-21T09:27:32.390Z,9.75
2022-10-21T09:30:03.489Z,8.13
2022-10-21T09:32:36.486Z,5.97
2022-10-21T09:35:28.739Z,7.05
2022-10-21T09:38:21.033Z,7.15
2022-10-21T09:40:52.834Z,9.73
2022-10-21T09:43:25.513Z,8.78
2022-10-21T09:45:54.723Z,8.30
2022-10-21T09:51:31.634Z,8.70
2022-10-21T09:54:11.675Z,10.03
2022-10-21T09:56:58.978Z,10.35
2022-10-21T09:59:32.892Z,8.15
2022-10-21T10:02:06.701Z,8.73
2022-10-21T10:04:37.442Z,5.40
2022-10-21T10:07:34.282Z,9.73
2022-10-21T10:10:08.468Z,7.87
2022-10-21T10:12:37.416Z,5.70
2022-10-21T10:15:15.212Z,5.90
2022-10-21T10:17:46.324Z,7.78
2022-10-21T10:20:20.341Z,7.12
2022-10-21T10:23:05.441Z,6.03
2022-10-21T10:25:39.042Z,7.15
2022-10-21T10:28:15.255Z,7.17
2022-10-21T10:30:48.866Z,7.20
2022-10-21T10:33:24.120Z,10.25
2022-10-21T10:36:05.510Z,8.15
2022-10-21T10:38:48.526Z,6.97
2022-10-21T10:41:18.196Z,6.12
2022-10-21T10:43:53.540Z,9.00
2022-10-21T10:46:34.914Z,8.98
2022-10-21T10:49:23.831Z,5.42
2022-10-21T10:52:11.639Z,8.40
2022-10-21T10:54:43.165Z,10.08
2022-10-21T10:57:29.853Z,6.55
2022-10-21T11:00:10.103Z,7.33
2022-10-21T11:02:51.222Z,11.28
2022-10-21T11:05:46.390Z,5.28
2022-10-21T11:08:36.029Z,5.20
2022-10-21T11:11:16.852Z,6.28
2022-10-21T11:13:47.867Z,8.20
2022-10-21T11:16:50.498Z,8.53
2022-10-21T11:19:30.194Z,5.03
2022-10-21T11:24:58.111Z,4.28
2022-10-21T11:28:09.973Z,7.22
2022-10-21T11:31:09.152Z,6.15
2022-10-21T11:33:57.659Z,4.50
2022-10-21T11:36:40.506Z,7.08
2022-10-21T11:39:36.141Z,5.62
2022-10-21T11:42:16.531Z,6.60
2022-10-21T11:45:20.788Z,5.35
2022-10-21T11:47:58.825Z,4.25
2022-10-21T11:51:00.311Z,6.12
2022-10-21T11:53:50.633Z,3.02
2022-10-21T11:56:47.267Z,4.10
2022-10-21T11:59:54.166Z,2.98
2022-10-21T12:02:44.632Z,2.35
2022-10-21T12:05:28.239Z,5.72
2022-10-21T12:08:18.533Z,5.37
2022-10-21T12:11:17.403Z,4.72
2022-10-21T12:13:55.537Z,6.80
2022-10-21T12:16:30.617Z,6.22
2022-10-21T12:19:05.619Z,5.20
2022-10-21T12:21:37.016Z,4.92
2022-10-21T12:24:33.807Z,5.30
2022-10-21T12:27:25.583Z,5.45
2022-10-21T12:30:09.037Z,5.20
2022-10-21T12:32:52.679Z,8.75
2022-10-21T12:35:45.559Z,3.75
2022-10-21T12:38:30.529Z,3.20
2022-10-21T12:41:34.352Z,5.37
2022-10-21T12:44:22.175Z,4.35
2022-10-21T12:47:03.102Z,3.35
2022-10-21T12:49:34.010Z,3.92
2022-10-21T12:52:10.909Z,6.87
2022-10-21T12:54:53.739Z,3.70
2022-10-21T12:57:38.512Z,7.15
2022-10-21T13:00:33.646Z,2.80
2022-10-21T13:03:10.601Z,4.00
2022-10-21T13:05:49.820Z,3.77
2022-10-21T13:08:28.931Z,2.37
2022-10-21T13:11:12.829Z,4.53
2022-10-21T13:13:47.474Z,3.67
2022-10-21T13:16:25.603Z,2.87
2022-10-21T13:19:00.050Z,3.80
2022-10-21T13:21:43.338Z,4.47
2022-10-21T13:24:23.721Z,3.05
2022-10-21T13:27:04.417Z,4.42
2022-10-21T13:29:41.908Z,4.97
2022-10-21T13:32:30.258Z,8.38
2022-10-21T13:35:20.439Z,4.25
2022-10-21T13:37:56.282Z,4.70
2022-10-21T13:40:30.794Z,6.62
2022-10-21T13:43:03.360Z,3.83
2022-10-21T13:45:37.914Z,4.75
2022-10-21T13:48:23.295Z,3.33
2022-10-21T13:50:53.311Z,5.33
2022-10-21T13:53:28.402Z,5.92
2022-10-21T13:56:01.421Z,6.85
2022-10-21T13:58:36.719Z,5.50
2022-10-21T14:01:12.134Z,4.67
2022-10-21T14:03:42.311Z,10.93
2022-10-21T14:06:29.310Z,7.30
2022-10-21T14:09:01.866Z,3.72
2022-10-21T14:11:36.492Z,10.53
2022-10-21T14:14:07.662Z,6.97
2022-10-21T14:16:41.831Z,6.92
2022-10-21T14:19:21.165Z,6.20
2022-10-21T14:21:56.636Z,5.53
2022-10-21T14:24:42.369Z,6.95
2022-10-21T14:27:15.733Z,8.20
2022-10-21T14:29:45.708Z,5.90
2022-10-21T14:32:16.870Z,7.12
2022-10-21T14:35:10.863Z,6.05
2022-10-21T14:37:47.474Z,6.65
2022-10-21T14:40:36.010Z,5.80
2022-10-21T14:43:09.793Z,7.75
2022-10-21T14:45:52.021Z,6.22
2022-10-21T14:48:41.718Z,4.97
2022-10-21T14:51:15.244Z,5.00
2022-10-21T14:53:57.009Z,6.42
2022-10-21T14:56:40.747Z,6.12
2022-10-21T14:59:22.914Z,7.92
2022-10-21T15:01:52.568Z,6.58
2022-10-21T15:04:56.892Z,6.55
2022-10-21T15:07:33.157Z,23.60
2022-10-21T15:10:10.026Z,4.97
2022-10-21T15:12:50.404Z,6.22
2022-10-21T15:15:52.485Z,6.25
2022-10-21T15:18:33.086Z,5.28
2022-10-21T15:21:10.252Z,6.53
2022-10-21T15:23:47.183Z,10.58
2022-10-21T15:26:29.326Z,10.10
2022-10-21T15:29:01.305Z,14.35
2022-10-21T15:31:32.158Z,14.13
2022-10-21T15:34:02.912Z,6.75
2022-10-21T15:36:32.515Z,9.15
2022-10-21T15:39:05.382Z,11.75
2022-10-21T15:41:36.572Z,10.20
2022-10-21T15:44:16.045Z,11.65
2022-10-21T15:46:50.139Z,10.08
2022-10-21T15:49:22.742Z,11.55
2022-10-21T15:51:52.539Z,12.18
2022-10-21T15:54:22.958Z,19.73
2022-10-21T15:56:54.321Z,23.12
2022-10-21T15:59:29.551Z,13.05
2022-10-21T16:01:59.616Z,14.85
2022-10-21T16:04:29.873Z,11.12
2022-10-21T16:06:59.502Z,9.65
2022-10-21T16:09:29.927Z,8.55
2022-10-21T16:12:01.567Z,9.83
2022-10-21T16:14:33.576Z,16.23
2022-10-21T16:17:04.416Z,13.45
2022-10-21T16:19:34.316Z,11.45
2022-10-21T16:22:13.455Z,12.20
2022-10-21T16:24:44.204Z,12.35
2022-10-21T16:27:13.977Z,12.33
2022-10-21T16:29:43.552Z,12.25
2022-10-21T16:32:15.998Z,14.75
2022-10-21T16:34:46.426Z,10.05
2022-10-21T16:37:27.294Z,13.35
2022-10-21T16:39:58.349Z,13.22
2022-10-21T16:42:29.647Z,13.48
2022-10-21T16:44:58.646Z,13.78
2022-10-21T16:47:28.742Z,16.62
2022-10-21T16:49:58.698Z,22.45
2022-10-21T16:52:28.762Z,19.30
2022-10-21T16:54:58.768Z,21.30
2022-10-21T16:57:29.358Z,19.67
2022-10-21T16:59:58.605Z,19.27
2022-10-21T17:02:27.684Z,17.87
2022-10-21T17:04:58.420Z,17.00
2022-10-21T17:07:27.523Z,16.20
2022-10-21T17:09:58.533Z,17.05
2022-10-21T17:12:31.944Z,17.67
2022-10-21T17:15:03.008Z,21.12
2022-10-21T17:17:34.130Z,22.32
2022-10-21T17:20:06.358Z,23.30
2022-10-21T17:22:36.115Z,19.07
2022-10-21T17:25:06.026Z,22.70
2022-10-21T17:27:36.168Z,19.75
2022-10-21T17:30:06.693Z,21.17
2022-10-21T17:32:37.043Z,20.27
2022-10-21T17:35:12.573Z,19.52
2022-10-21T17:37:43.554Z,21.70
2022-10-21T17:40:20.796Z,23.25
2022-10-21T17:42:50.707Z,27.93
2022-10-21T17:45:20.575Z,29.25
2022-10-21T17:47:50.707Z,26.82
2022-10-21T17:50:25.830Z,26.20
2022-10-21T17:53:00.121Z,28.35
2022-10-21T17:55:29.125Z,25.65
2022-10-21T17:57:59.982Z,19.20
2022-10-21T18:00:30.165Z,17.07
2022-10-21T18:03:05.507Z,14.18
2022-10-21T18:05:34.993Z,18.20
2022-10-21T18:08:05.593Z,13.70
2022-10-21T18:10:36.363Z,14.60
2022-10-21T18:13:06.547Z,12.53
2022-10-21T18:15:38.690Z,16.73
2022-10-21T18:18:09.181Z,10.48
2022-10-21T18:20:40.105Z,16.07
2022-10-21T18:23:09.440Z,14.87
2022-10-21T18:25:39.698Z,11.53
2022-10-21T18:28:09.633Z,13.35
2022-10-21T18:30:43.818Z,12.80
2022-10-21T18:33:14.685Z,17.40
2022-10-21T18:35:45.700Z,17.23
2022-10-21T18:38:16.189Z,15.55
2022-10-21T18:40:56.416Z,23.57
2022-10-21T18:43:18.933Z,18.70
2022-10-21T18:45:49.413Z,20.43
2022-10-21T18:48:19.024Z,22.52
2022-10-21T18:50:48.955Z,24.02
2022-10-21T18:53:19.437Z,21.10
2022-10-21T18:55:51.796Z,21.05
2022-10-21T18:58:22.972Z,16.15
2022-10-21T19:00:52.386Z,17.82
2022-10-21T19:03:21.240Z,18.67
2022-10-21T19:05:52.895Z,23.32
2022-10-21T19:08:22.691Z,20.95
2022-10-21T19:10:54.087Z,21.35
2022-10-21T19:13:24.532Z,19.75
2022-10-21T19:15:56.549Z,22.42
2022-10-21T19:18:27.593Z,30.62
2022-10-21T19:20:58.177Z,25.12
2022-10-21T19:23:30.172Z,26.95
2022-10-21T19:26:07.636Z,25.60
2022-10-21T19:28:37.302Z,32.73
2022-10-21T19:31:08.690Z,25.40
2022-10-21T19:33:40.396Z,23.25
2022-10-21T19:36:11.154Z,21.45
2022-10-21T19:38:44.479Z,25.32
2022-10-21T19:41:15.786Z,23.40
2022-10-21T19:43:45.629Z,29.82
2022-10-21T19:46:22.382Z,22.32
2022-10-21T19:48:53.698Z,20.35
2022-10-21T19:51:25.916Z,21.25
2022-10-21T19:53:56.796Z,23.98
2022-10-21T19:56:30.715Z,22.95
2022-10-21T19:58:59.964Z,21.82
2022-10-21T20:01:30.600Z,25.97
2022-10-21T20:04:01.458Z,24.02
2022-10-21T20:06:34.525Z,21.80
2022-10-21T20:09:10.988Z,21.10
2022-10-21T20:11:41.458Z,18.20
2022-10-21T20:14:15.841Z,18.73
2022-10-21T20:16:48.957Z,21.42
2022-10-21T20:19:19.474Z,24.67
2022-10-21T20:21:49.922Z,24.25
2022-10-21T20:24:20.246Z,23.12
2022-10-21T20:26:52.636Z,21.65
2022-10-21T20:29:22.198Z,23.02
2022-10-21T20:31:52.184Z,23.55
2022-10-21T20:34:22.460Z,28.10
2022-10-21T20:36:53.856Z,20.45
2022-10-21T20:39:24.882Z,21.85
2022-10-21T20:41:54.307Z,29.35
2022-10-21T20:44:25.206Z,22.65
2022-10-21T20:46:56.682Z,18.52
2022-10-21T20:49:26.988Z,21.00
2022-10-21T20:51:56.221Z,18.70
2022-10-21T20:54:28.483Z,21.57
2022-10-21T20:56:59.229Z,18.32
2022-10-21T20:59:29.344Z,22.32
2022-10-21T21:01:59.170Z,20.68
2022-10-21T21:04:28.989Z,23.83
2022-10-21T21:06:58.970Z,20.23
2022-10-21T21:09:44.012Z,17.42
2022-10-21T21:12:03.027Z,20.32
2022-10-21T21:14:33.132Z,18.95
2022-10-21T21:17:04.956Z,18.30
2022-10-21T21:19:35.201Z,18.60
2022-10-21T21:22:05.180Z,21.95
2022-10-21T21:24:34.642Z,22.50
2022-10-21T21:27:05.352Z,17.87
2022-10-21T21:29:35.816Z,22.48
2022-10-21T21:32:06.278Z,21.82
2022-10-21T21:34:35.684Z,20.90
2022-10-21T21:37:07.155Z,22.50
2022-10-21T21:39:36.708Z,20.08
2022-10-21T21:42:07.516Z,24.27
2022-10-21T21:44:38.846Z,21.25
2022-10-21T21:47:07.988Z,20.27
2022-10-21T21:49:38.065Z,20.35
2022-10-21T21:52:09.066Z,19.73
2022-10-21T21:54:38.921Z,18.95
2022-10-21T21:57:27.619Z,18.42
2022-10-21T21:59:41.543Z,18.62
2022-10-21T22:02:11.890Z,18.37
2022-10-21T22:04:42.633Z,20.62
2022-10-21T22:07:12.247Z,18.37
2022-10-21T22:09:42.914Z,26.27
2022-10-21T22:12:16.352Z,18.45
2022-10-21T22:14:49.690Z,16.02
2022-10-21T22:17:20.643Z,16.62
2022-10-21T22:19:53.712Z,16.10
2022-10-21T22:22:23.229Z,19.07
2022-10-21T22:24:53.793Z,17.55
2022-10-21T22:27:24.478Z,20.30
2022-10-21T22:29:54.742Z,16.45
2022-10-21T22:32:24.009Z,15.80
2022-10-21T22:34:54.143Z,17.98
2022-10-21T22:37:23.961Z,19.77
2022-10-21T22:39:54.192Z,16.32
2022-10-21T22:42:25.381Z,17.30
2022-10-21T22:44:57.816Z,17.40
2022-10-21T22:47:30.039Z,19.85
2022-10-21T22:50:02.811Z,18.98
2022-10-21T22:52:33.752Z,17.42
2022-10-21T22:55:07.109Z,16.90
2022-10-21T22:57:39.194Z,18.27
2022-10-21T23:00:12.214Z,16.02
2022-10-21T23:02:47.426Z,15.88
2022-10-21T23:05:18.603Z,17.55
2022-10-21T23:07:49.524Z,15.85
2022-10-21T23:10:23.162Z,16.97
2022-10-21T23:12:56.566Z,16.97
2022-10-21T23:15:27.347Z,14.40
2022-10-21T23:17:58.841Z,19.27
2022-10-21T23:20:28.373Z,14.60
2022-10-21T23:22:58.245Z,15.70
2022-10-21T23:25:28.472Z,17.00
2022-10-21T23:27:57.232Z,14.43
2022-10-21T23:30:26.861Z,15.40
2022-10-21T23:32:56.036Z,14.55
2022-10-21T23:35:30.989Z,15.32
2022-10-21T23:38:00.672Z,18.10
2022-10-21T23:40:31.165Z,15.93
2022-10-21T23:43:00.411Z,13.53
2022-10-21T23:45:29.535Z,15.08
2022-10-21T23:47:59.802Z,14.65
2022-10-21T23:50:28.794Z,12.98
2022-10-21T23:52:58.335Z,14.10
2022-10-21T23:57:57.976Z,12.58
